Glyndon, Maryland
Current Conditions -  °F | °C
As of 2:15 PM on Friday 28 Nov 2014 (Local Time) from KDMW Reporting Station
Scattered Clouds Scattered Clouds  
Wind Chill: 26°   Ceiling: Unl
Heat Index: 34°   Visibility: 10mi
Dew Point: 18°   Wind: 9mph
Humidity: 52%   Direction: 310°NW
Pressure: 30.22"   Gusts: NA
Location:  39.48°N, 76.82°W
Report Text: KDMW 281915Z AUTO 31008KT 10SM SCT050 01/M08 A3022 RMK AO2
Loading
Personal Weather Stations






























Interactive Weather Map New forecast layout! Learn more

10-Day Weather Forecast

Advertisements
Track Severe Weather on mobile